Kinoura — 3FHE5 — position and weather

sailwx.info

Track history (hours):
 
Tides and Currents Weather Stations Pressure Air Temp Water Temp Dewpoint Dewpoint Depression Visibility Wind Speed Wind Dir Waves Ship Positions

Kinoura

Last reported at 2015-Jul-20 04:33 UTC. Time now 2015-Aug-04 19:53 UTC.
Position N 34°57' E 139°27'.
Warning: this ship's position is 15 days out of date.

Length 227 m; draft 9.8 m.

Type: Cargo ship. MMSI: 373041000.

Date/timePositionNaut miles runAvg speedWind from/ knotsBaromVisibWave heightAir tempDewpointWater temp
2015-Jul-20 04:33N 34°57' E 139°27'1010.4
2015-Jul-20 03:33N 35°02' E 139°38'1111.0
2015-Jul-20 02:33N 35°11' E 139°45'1111.1
2015-Jul-20 01:34N 35°22' E 139°42'2 2.4
2015-Jul-20 00:31N 35°24' E 139°40'0 0.0
2015-Jul-19 23:31N 35°24' E 139°40'0 0.0
2015-Jul-19 22:31N 35°24' E 139°40'0 0.0
2015-Jul-19 21:31N 35°24' E 139°40'0 0.0
2015-Jul-19 20:31N 35°24' E 139°40'0 0.0
2015-Jul-19 19:31N 35°24' E 139°40'0 0.0
2015-Jul-19 18:28N 35°24' E 139°40'0 0.0
2015-Jul-19 17:31N 35°24' E 139°40'0 0.0
2015-Jul-19 16:31N 35°24' E 139°40'0 0.0
2015-Jul-19 15:31N 35°24' E 139°40'0 0.0
2015-Jul-19 14:31N 35°24' E 139°40'0 0.0
2015-Jul-19 13:31N 35°24' E 139°40'0 0.0
2015-Jul-19 12:31N 35°24' E 139°40'0 0.0
2015-Jul-19 11:28N 35°24' E 139°40'0 0.0
2015-Jul-19 10:31N 35°24' E 139°40'0 0.0
2015-Jul-19 09:31N 35°24' E 139°40'0 0.0
2015-Jul-19 08:31N 35°24' E 139°40'0 0.0
2015-Jul-19 07:31N 35°24' E 139°40'0 0.0
2015-Jul-19 06:31N 35°24' E 139°40'0 0.0
2015-Jul-19 05:31N 35°24' E 139°40'0 0.0
2015-Jul-19 04:31N 35°24' E 139°40'0 0.0
2015-Jul-19 00:31N 35°24' E 139°40'0 0.0
2015-Jul-18 23:31N 35°24' E 139°40'0 0.0
2015-Jul-18 22:31N 35°24' E 139°40'0 0.0
2015-Jul-18 21:28N 35°24' E 139°40'0 0.0
2015-Jul-18 20:28N 35°24' E 139°40'0 0.0
2015-Jul-18 19:31N 35°24' E 139°40'0 0.0
2015-Jul-18 18:31N 35°24' E 139°40'0 0.0
2015-Jul-18 17:31N 35°24' E 139°40'0 0.0
2015-Jul-18 16:28N 35°24' E 139°40'0 0.0
2015-Jul-18 15:31N 35°24' E 139°40'0 0.0
2015-Jul-18 14:31N 35°24' E 139°40'0 0.0
2015-Jul-18 13:31N 35°24' E 139°40'0 0.0
2015-Jul-18 12:31N 35°24' E 139°40'0 0.0
2015-Jul-18 11:31N 35°24' E 139°40'0 0.0
2015-Jul-18 10:28N 35°24' E 139°40'0 0.0
2015-Jul-18 09:31N 35°24' E 139°40'0 0.0
2015-Jul-18 08:31N 35°24' E 139°40'0 0.0
2015-Jul-18 07:31N 35°24' E 139°40'0 0.0
2015-Jul-18 06:31N 35°24' E 139°40'0 0.0
2015-Jul-18 05:31N 35°24' E 139°40'0 0.0
2015-Jul-18 04:31N 35°24' E 139°40'0 0.0
2015-Jul-18 03:31N 35°24' E 139°40'0 0.0
2015-Jul-18 02:31N 35°24' E 139°40'0 0.0
2015-Jul-18 01:31N 35°24' E 139°40'0 0.0
2015-Jul-18 00:28N 35°24' E 139°40'0 0.0
2015-Jul-17 23:22N 35°24' E 139°40'0 0.0
2015-Jul-17 22:32N 35°24' E 139°40'2 1.8
2015-Jul-17 21:34N 35°23' E 139°41'4 3.8
2015-Jul-17 20:33N 35°19' E 139°43'1010.2
2015-Jul-17 19:33N 35°09' E 139°46'5 5.1
2015-Jul-17 18:33N 35°05' E 139°44'3 3.0
2015-Jul-17 17:33N 35°02' E 139°42'4 3.6
2015-Jul-17 16:33N 34°59' E 139°41'5 4.8
2015-Jul-17 15:26N 34°54' E 139°42'  
Track history (hours):
 
Tides and Currents Weather Stations Pressure Air Temp Water Temp Dewpoint Dewpoint Depression Visibility Wind Speed Wind Dir Waves Ship Positions

Kinoura

Last reported at 2015-Jul-20 04:33 UTC. Time now 2015-Aug-04 19:53 UTC.
Position N 34°57' E 139°27'.
Warning: this ship's position is 15 days out of date.

Length 227 m; draft 9.8 m.

Type: Cargo ship. MMSI: 373041000.

Date/timePositionNaut miles runAvg speedWind from/ knotsBaromVisibWave heightAir tempDewpointWater temp
2015-Jul-20 04:33N 34°57' E 139°27'1010.4
2015-Jul-20 03:33N 35°02' E 139°38'1111.0
2015-Jul-20 02:33N 35°11' E 139°45'1111.1
2015-Jul-20 01:34N 35°22' E 139°42'2 2.4
2015-Jul-20 00:31N 35°24' E 139°40'0 0.0
2015-Jul-19 23:31N 35°24' E 139°40'0 0.0
2015-Jul-19 22:31N 35°24' E 139°40'0 0.0
2015-Jul-19 21:31N 35°24' E 139°40'0 0.0
2015-Jul-19 20:31N 35°24' E 139°40'0 0.0
2015-Jul-19 19:31N 35°24' E 139°40'0 0.0
2015-Jul-19 18:28N 35°24' E 139°40'0 0.0
2015-Jul-19 17:31N 35°24' E 139°40'0 0.0
2015-Jul-19 16:31N 35°24' E 139°40'0 0.0
2015-Jul-19 15:31N 35°24' E 139°40'0 0.0
2015-Jul-19 14:31N 35°24' E 139°40'0 0.0
2015-Jul-19 13:31N 35°24' E 139°40'0 0.0
2015-Jul-19 12:31N 35°24' E 139°40'0 0.0
2015-Jul-19 11:28N 35°24' E 139°40'0 0.0
2015-Jul-19 10:31N 35°24' E 139°40'0 0.0
2015-Jul-19 09:31N 35°24' E 139°40'0 0.0
2015-Jul-19 08:31N 35°24' E 139°40'0 0.0
2015-Jul-19 07:31N 35°24' E 139°40'0 0.0
2015-Jul-19 06:31N 35°24' E 139°40'0 0.0
2015-Jul-19 05:31N 35°24' E 139°40'0 0.0
2015-Jul-19 04:31N 35°24' E 139°40'0 0.0
2015-Jul-19 00:31N 35°24' E 139°40'0 0.0
2015-Jul-18 23:31N 35°24' E 139°40'0 0.0
2015-Jul-18 22:31N 35°24' E 139°40'0 0.0
2015-Jul-18 21:28N 35°24' E 139°40'0 0.0
2015-Jul-18 20:28N 35°24' E 139°40'0 0.0
2015-Jul-18 19:31N 35°24' E 139°40'0 0.0
2015-Jul-18 18:31N 35°24' E 139°40'0 0.0
2015-Jul-18 17:31N 35°24' E 139°40'0 0.0
2015-Jul-18 16:28N 35°24' E 139°40'0 0.0
2015-Jul-18 15:31N 35°24' E 139°40'0 0.0
2015-Jul-18 14:31N 35°24' E 139°40'0 0.0
2015-Jul-18 13:31N 35°24' E 139°40'0 0.0
2015-Jul-18 12:31N 35°24' E 139°40'0 0.0
2015-Jul-18 11:31N 35°24' E 139°40'0 0.0
2015-Jul-18 10:28N 35°24' E 139°40'0 0.0
2015-Jul-18 09:31N 35°24' E 139°40'0 0.0
2015-Jul-18 08:31N 35°24' E 139°40'0 0.0
2015-Jul-18 07:31N 35°24' E 139°40'0 0.0
2015-Jul-18 06:31N 35°24' E 139°40'0 0.0
2015-Jul-18 05:31N 35°24' E 139°40'0 0.0
2015-Jul-18 04:31N 35°24' E 139°40'0 0.0
2015-Jul-18 03:31N 35°24' E 139°40'0 0.0
2015-Jul-18 02:31N 35°24' E 139°40'0 0.0
2015-Jul-18 01:31N 35°24' E 139°40'0 0.0
2015-Jul-18 00:28N 35°24' E 139°40'0 0.0
2015-Jul-17 23:22N 35°24' E 139°40'0 0.0
2015-Jul-17 22:32N 35°24' E 139°40'2 1.8
2015-Jul-17 21:34N 35°23' E 139°41'4 3.8
2015-Jul-17 20:33N 35°19' E 139°43'1010.2
2015-Jul-17 19:33N 35°09' E 139°46'5 5.1
2015-Jul-17 18:33N 35°05' E 139°44'3 3.0
2015-Jul-17 17:33N 35°02' E 139°42'4 3.6
2015-Jul-17 16:33N 34°59' E 139°41'5 4.8
2015-Jul-17 15:26N 34°54' E 139°42'  

Dump ship's entire track history